Time;durP1;ratioP1;P1;durP2;ratioP2;P2;SDS_P1;SDS_P2;PMS_P1;PMS_P2;Temp;Humidity;BMP_temperature;BMP_pressure;BME280_temperature;BME280_humidity;BME280_pressure;Samples;Min_cycle;Max_cycle;Signal;HPM_P1;HPM_P2
2023/04/13 00:01:14;;;;;;;0.83;0.83;;;;;5.70;94827.00;;;;5053466;28;20200;-63
2023/04/13 00:03:44;;;;;;;0.60;0.60;;;;;5.50;94827.00;;;;5053662;28;20255;-63
2023/04/13 00:06:11;;;;;;;0.73;0.73;;;;;5.60;94834.00;;;;5053321;28;20192;-62
2023/04/13 00:08:42;;;;;;;0.60;0.60;;;;;5.50;94838.00;;;;5053581;28;20547;-63
2023/04/13 00:11:10;;;;;;;0.60;0.60;;;;;5.60;94842.00;;;;5052179;28;20540;-63
2023/04/13 00:13:39;;;;;;;6.40;0.97;;;;;5.40;94829.00;;;;5053073;28;20235;-63
2023/04/13 00:16:08;;;;;;;0.50;0.50;;;;;5.80;94829.00;;;;5053444;28;20213;-62
2023/04/13 00:18:36;;;;;;;0.60;0.60;;;;;5.80;94830.00;;;;5053234;28;20198;-62
2023/04/13 00:21:03;;;;;;;0.50;0.50;;;;;5.70;94836.00;;;;5053423;28;20193;-62
2023/04/13 00:23:30;;;;;;;0.60;0.60;;;;;5.60;94841.00;;;;5053075;28;20192;-62
2023/04/13 00:26:00;;;;;;;0.70;0.70;;;;;5.60;94831.00;;;;5053331;28;20563;-62
2023/04/13 00:28:28;;;;;;;0.60;0.60;;;;;5.50;94837.00;;;;5053016;28;20688;-62
2023/04/13 00:30:56;;;;;;;0.60;0.60;;;;;5.40;94832.00;;;;5052998;28;20196;-63
2023/04/13 00:33:23;;;;;;;1.17;1.17;;;;;5.40;94837.00;;;;5053080;28;20270;-62
2023/04/13 00:35:51;;;;;;;0.60;0.60;;;;;5.40;94835.00;;;;5052906;28;20195;-62
2023/04/13 00:38:18;;;;;;;0.60;0.60;;;;;5.40;94832.00;;;;5052866;28;20195;-62
2023/04/13 00:40:45;;;;;;;0.60;0.60;;;;;5.30;94831.00;;;;5053093;28;20520;-62
2023/04/13 00:43:16;;;;;;;0.53;0.53;;;;;5.40;94828.00;;;;5053052;28;20266;-62
2023/04/13 00:45:43;;;;;;;0.60;0.60;;;;;5.50;94838.00;;;;5053191;28;20204;-62
2023/04/13 00:48:12;;;;;;;0.60;0.60;;;;;5.70;94837.00;;;;5052799;28;20712;-62
2023/04/13 00:50:41;;;;;;;0.50;0.50;;;;;5.60;94844.00;;;;5052608;28;20587;-63
2023/04/13 00:53:11;;;;;;;0.60;0.60;;;;;5.70;94841.00;;;;5052925;28;20219;-62
2023/04/13 00:55:41;;;;;;;0.60;0.60;;;;;5.60;94837.00;;;;5053222;28;20244;-62
2023/04/13 00:58:08;;;;;;;0.63;0.63;;;;;5.50;94840.00;;;;5053133;28;20196;-62
2023/04/13 01:00:37;;;;;;;0.50;0.50;;;;;5.40;94839.00;;;;5052959;28;20208;-63
2023/04/13 01:03:05;;;;;;;0.60;0.60;;;;;5.50;94829.00;;;;5052951;28;20188;-62
2023/04/13 01:05:37;;;;;;;0.57;0.57;;;;;5.50;94838.00;;;;5054579;28;20199;-63
2023/04/13 01:08:16;;;;;;;0.63;0.63;;;;;5.30;94844.00;;;;5056942;28;20176;-62
2023/04/13 01:10:53;;;;;;;1.00;0.67;;;;;5.50;94836.00;;;;5056658;28;20291;-62
2023/04/13 01:13:24;;;;;;;0.60;0.60;;;;;5.50;94834.00;;;;5055327;28;20245;-62
2023/04/13 01:16:00;;;;;;;0.57;0.57;;;;;5.40;94831.00;;;;5055331;28;20187;-62
2023/04/13 01:18:29;;;;;;;0.60;0.60;;;;;5.40;94827.00;;;;5056838;28;20202;-62
2023/04/13 01:20:58;;;;;;;0.60;0.60;;;;;5.40;94828.00;;;;5056731;28;20501;-62
2023/04/13 01:23:35;;;;;;;0.50;0.50;;;;;5.40;94843.00;;;;5056578;28;20591;-62
2023/04/13 01:26:07;;;;;;;1.23;1.13;;;;;5.20;94841.00;;;;5056678;28;20551;-63
2023/04/13 01:28:38;;;;;;;1.20;1.20;;;;;5.20;94836.00;;;;5056604;28;20221;-63
2023/04/13 01:31:10;;;;;;;0.60;0.60;;;;;5.30;94828.00;;;;5056563;28;20570;-63
2023/04/13 01:33:39;;;;;;;0.60;0.60;;;;;5.40;94829.00;;;;5056518;28;20236;-62
2023/04/13 01:36:09;;;;;;;0.60;0.60;;;;;5.20;94829.00;;;;5056143;28;20196;-62
2023/04/13 01:38:37;;;;;;;0.60;0.60;;;;;5.10;94823.00;;;;5056008;28;20242;-62
2023/04/13 01:41:05;;;;;;;0.67;0.67;;;;;5.00;94819.00;;;;5056056;28;20264;-63
2023/04/13 01:43:35;;;;;;;0.70;0.70;;;;;4.90;94825.00;;;;5055986;28;20246;-62
2023/04/13 01:46:08;;;;;;;0.70;0.70;;;;;4.70;94818.00;;;;5056272;28;20196;-63
2023/04/13 01:48:41;;;;;;;6.07;1.23;;;;;4.70;94821.00;;;;5056242;28;20219;-63
2023/04/13 01:51:12;;;;;;;0.60;0.60;;;;;4.60;94809.00;;;;5055991;28;20186;-63
2023/04/13 01:53:44;;;;;;;0.90;0.90;;;;;4.50;94809.00;;;;5055883;28;20678;-63
2023/04/13 01:56:12;;;;;;;1.03;0.80;;;;;4.60;94796.00;;;;5055874;28;20184;-63
2023/04/13 01:58:42;;;;;;;0.50;0.50;;;;;4.50;94785.00;;;;5054399;28;20759;-63
2023/04/13 02:01:11;;;;;;;0.73;0.73;;;;;4.50;94794.00;;;;5055932;28;20188;-64
2023/04/13 02:03:39;;;;;;;0.60;0.60;;;;;4.70;94802.00;;;;5055693;28;20246;-63
2023/04/13 02:06:07;;;;;;;0.60;0.60;;;;;4.60;94798.00;;;;5055883;28;20770;-63
2023/04/13 02:08:35;;;;;;;0.70;0.70;;;;;4.60;94797.00;;;;5055666;28;20192;-63
2023/04/13 02:11:04;;;;;;;1.23;0.83;;;;;4.60;94799.00;;;;5055884;28;20249;-63
2023/04/13 02:13:31;;;;;;;0.60;0.60;;;;;4.60;94787.00;;;;5055417;28;20317;-63
2023/04/13 02:16:00;;;;;;;0.60;0.60;;;;;4.70;94786.00;;;;5053920;28;20199;-63
2023/04/13 02:18:28;;;;;;;0.60;0.60;;;;;4.80;94780.00;;;;5054141;28;20223;-63
2023/04/13 02:21:07;;;;;;;0.70;0.70;;;;;4.70;94793.00;;;;5055679;28;20247;-63
2023/04/13 02:23:34;;;;;;;0.60;0.60;;;;;4.50;94793.00;;;;5055453;28;20177;-63
2023/04/13 02:26:03;;;;;;;0.60;0.60;;;;;4.50;94784.00;;;;5055585;28;20192;-63
2023/04/13 02:28:31;;;;;;;0.60;0.60;;;;;4.60;94778.00;;;;5055137;28;20200;-64
2023/04/13 02:31:01;;;;;;;0.80;0.80;;;;;4.70;94794.00;;;;5055208;28;20298;-63
2023/04/13 02:33:30;;;;;;;0.60;0.60;;;;;4.60;94788.00;;;;5055051;28;20715;-64
2023/04/13 02:35:57;;;;;;;0.50;0.50;;;;;4.60;94785.00;;;;5055613;28;20274;-63
2023/04/13 02:38:25;;;;;;;0.50;0.50;;;;;4.50;94792.00;;;;5053749;28;20539;-63
2023/04/13 02:40:55;;;;;;;1.00;1.00;;;;;4.70;94788.00;;;;5055539;28;20194;-63
2023/04/13 02:43:22;;;;;;;0.70;0.70;;;;;4.80;94785.00;;;;5054895;28;20215;-63
2023/04/13 02:45:50;;;;;;;0.60;0.60;;;;;4.70;94778.00;;;;5055145;28;20192;-63
2023/04/13 02:48:19;;;;;;;1.33;1.27;;;;;4.50;94784.00;;;;5054867;28;20196;-65
2023/04/13 02:50:46;;;;;;;0.50;0.50;;;;;4.60;94787.00;;;;5054858;28;20262;-63
2023/04/13 02:53:14;;;;;;;0.60;0.60;;;;;4.50;94786.00;;;;5054930;28;20308;-63
2023/04/13 02:55:41;;;;;;;0.60;0.60;;;;;4.50;94773.00;;;;5054762;28;20719;-63
2023/04/13 02:58:10;;;;;;;0.70;0.70;;;;;4.30;94776.00;;;;5054891;28;20265;-63
2023/04/13 03:00:38;;;;;;;0.63;0.63;;;;;4.40;94775.00;;;;5054762;28;20212;-63
2023/04/13 03:03:07;;;;;;;0.50;0.50;;;;;4.40;94763.00;;;;5054515;28;20216;-64
2023/04/13 03:05:36;;;;;;;0.60;0.60;;;;;4.20;94781.00;;;;5054781;28;20196;-63
2023/04/13 03:08:04;;;;;;;0.67;0.67;;;;;4.40;94798.00;;;;5054479;28;20196;-63
2023/04/13 03:10:31;;;;;;;0.60;0.60;;;;;4.30;94794.00;;;;5054609;28;20220;-64
2023/04/13 03:12:58;;;;;;;0.77;0.77;;;;;4.20;94799.00;;;;5054804;28;20204;-63
2023/04/13 03:15:26;;;;;;;2.73;1.23;;;;;4.20;94807.00;;;;5054455;28;20195;-63
2023/04/13 03:17:53;;;;;;;0.73;0.73;;;;;4.20;94803.00;;;;5054546;28;20185;-63
2023/04/13 03:20:22;;;;;;;0.77;0.77;;;;;4.20;94812.00;;;;5054191;28;20698;-64
2023/04/13 03:22:53;;;;;;;0.60;0.60;;;;;4.40;94812.00;;;;5052918;28;20232;-63
2023/04/13 03:25:21;;;;;;;0.50;0.50;;;;;4.40;94810.00;;;;5054477;28;20187;-63
2023/04/13 03:27:49;;;;;;;0.60;0.60;;;;;4.30;94822.00;;;;5053546;28;20227;-63
2023/04/13 03:30:17;;;;;;;0.60;0.60;;;;;4.20;94818.00;;;;5054261;28;20274;-63
2023/04/13 03:32:45;;;;;;;0.80;0.80;;;;;4.30;94825.00;;;;5054256;28;20191;-63
2023/04/13 03:35:12;;;;;;;0.60;0.60;;;;;4.40;94825.00;;;;5052671;28;20569;-63
2023/04/13 03:37:41;;;;;;;0.80;0.80;;;;;4.30;94834.00;;;;5054323;28;20192;-63
2023/04/13 03:40:11;;;;;;;0.70;0.70;;;;;4.30;94845.00;;;;5053834;28;20247;-63
2023/04/13 03:42:39;;;;;;;0.60;0.60;;;;;4.30;94856.00;;;;5053819;28;20711;-63
2023/04/13 03:45:07;;;;;;;0.60;0.60;;;;;4.40;94846.00;;;;5054305;28;20188;-64
2023/04/13 03:47:34;;;;;;;0.70;0.70;;;;;4.50;94849.00;;;;5054058;28;20541;-63
2023/04/13 03:50:02;;;;;;;0.60;0.60;;;;;4.70;94850.00;;;;5053672;28;20586;-64
2023/04/13 03:52:30;;;;;;;3.30;1.83;;;;;4.50;94856.00;;;;5053917;28;20193;-64
2023/04/13 03:54:57;;;;;;;0.60;0.60;;;;;4.60;94847.00;;;;5053553;28;20208;-63
2023/04/13 03:57:26;;;;;;;0.60;0.60;;;;;4.70;94848.00;;;;5053833;28;20612;-64
2023/04/13 03:59:53;;;;;;;0.60;0.60;;;;;4.70;94833.00;;;;5053722;28;20212;-63
2023/04/13 04:02:21;;;;;;;0.70;0.70;;;;;4.50;94843.00;;;;5053761;28;20192;-64
2023/04/13 04:04:48;;;;;;;0.70;0.70;;;;;4.70;94835.00;;;;5053685;28;20281;-64
2023/04/13 04:07:16;;;;;;;0.83;0.83;;;;;4.60;94828.00;;;;5052384;28;20564;-64
2023/04/13 04:09:43;;;;;;;1.17;1.17;;;;;4.30;94842.00;;;;5053622;28;20212;-64
2023/04/13 04:12:10;;;;;;;0.70;0.70;;;;;4.30;94835.00;;;;5053361;28;20197;-64
2023/04/13 04:14:39;;;;;;;0.70;0.70;;;;;4.40;94836.00;;;;5053434;28;20335;-64
2023/04/13 04:17:07;;;;;;;0.70;0.70;;;;;4.30;94832.00;;;;5053303;28;20203;-64
2023/04/13 04:19:34;;;;;;;0.60;0.60;;;;;4.30;94843.00;;;;5053156;28;20213;-63
2023/04/13 04:22:03;;;;;;;0.80;0.80;;;;;4.30;94840.00;;;;5053651;28;20192;-64
2023/04/13 04:24:30;;;;;;;0.60;0.60;;;;;4.30;94829.00;;;;5053157;28;20231;-64
2023/04/13 04:26:59;;;;;;;0.60;0.60;;;;;4.40;94845.00;;;;5053582;28;20188;-64
2023/04/13 04:29:32;;;;;;;0.60;0.60;;;;;4.30;94854.00;;;;5053129;28;20204;-64
2023/04/13 04:32:02;;;;;;;0.70;0.70;;;;;4.50;94851.00;;;;5053260;28;20246;-63
2023/04/13 04:34:30;;;;;;;6.37;1.13;;;;;4.30;94863.00;;;;5053021;28;20216;-63
2023/04/13 04:36:58;;;;;;;0.67;0.67;;;;;4.20;94868.00;;;;5053222;28;20192;-63
2023/04/13 04:39:31;;;;;;;0.60;0.60;;;;;4.30;94871.00;;;;5053114;28;20218;-63
2023/04/13 04:42:02;;;;;;;0.70;0.70;;;;;4.30;94875.00;;;;5052991;28;20181;-64
2023/04/13 04:44:31;;;;;;;5.40;0.97;;;;;4.30;94875.00;;;;5053565;28;20267;-63
2023/04/13 04:47:01;;;;;;;0.60;0.60;;;;;4.30;94881.00;;;;5053411;28;20203;-63
2023/04/13 04:49:29;;;;;;;0.60;0.60;;;;;4.40;94881.00;;;;5052799;28;20227;-63
2023/04/13 04:51:56;;;;;;;1.03;1.03;;;;;4.40;94888.00;;;;5052819;28;20195;-63
2023/04/13 04:54:24;;;;;;;0.60;0.60;;;;;4.40;94881.00;;;;5053212;28;20224;-63
2023/04/13 04:56:52;;;;;;;0.60;0.60;;;;;4.40;94886.00;;;;5053508;28;20271;-64
2023/04/13 04:59:19;;;;;;;0.60;0.60;;;;;4.50;94882.00;;;;5052695;28;20291;-63
2023/04/13 05:01:48;;;;;;;0.70;0.70;;;;;4.60;94891.00;;;;5052904;28;20192;-63
2023/04/13 05:04:17;;;;;;;0.53;0.53;;;;;4.70;94901.00;;;;5052703;28;20657;-64
2023/04/13 05:06:44;;;;;;;0.80;0.80;;;;;4.80;94893.00;;;;5052612;28;20192;-63
2023/04/13 05:09:13;;;;;;;0.73;0.73;;;;;4.90;94897.00;;;;5052876;28;20220;-63
2023/04/13 05:11:41;;;;;;;0.60;0.60;;;;;5.00;94901.00;;;;5052669;28;20196;-63
2023/04/13 05:14:08;;;;;;;2.90;0.80;;;;;5.00;94914.00;;;;5052458;28;20223;-63
2023/04/13 05:16:36;;;;;;;1.17;1.10;;;;;5.00;94905.00;;;;5051299;28;20204;-64
2023/04/13 05:19:05;;;;;;;0.80;0.80;;;;;5.00;94921.00;;;;5052767;28;20210;-64
2023/04/13 05:21:34;;;;;;;0.60;0.60;;;;;5.00;94923.00;;;;5052880;28;20216;-63
2023/04/13 05:24:02;;;;;;;0.70;0.70;;;;;4.90;94921.00;;;;5052445;28;20196;-63
2023/04/13 05:26:30;;;;;;;1.43;1.33;;;;;4.90;94922.00;;;;5051376;28;20648;-63
2023/04/13 05:28:57;;;;;;;2.03;0.83;;;;;4.80;94912.00;;;;5052595;28;20219;-63
2023/04/13 05:31:26;;;;;;;0.70;0.70;;;;;5.00;94926.00;;;;5052457;28;20196;-64
2023/04/13 05:33:53;;;;;;;3.10;1.07;;;;;4.90;94923.00;;;;5052238;28;20274;-62
2023/04/13 05:36:21;;;;;;;0.60;0.60;;;;;5.00;94919.00;;;;5052584;28;20200;-63
2023/04/13 05:38:50;;;;;;;0.63;0.63;;;;;5.10;94925.00;;;;5051209;28;20307;-63
2023/04/13 05:41:17;;;;;;;0.60;0.60;;;;;5.20;94930.00;;;;5052273;28;20200;-63
2023/04/13 05:43:45;;;;;;;3.90;0.80;;;;;4.90;94929.00;;;;5052328;28;20192;-63
2023/04/13 05:46:12;;;;;;;1.47;0.80;;;;;4.90;94929.00;;;;5052645;28;20200;-63
2023/04/13 05:48:40;;;;;;;0.93;0.93;;;;;5.00;94933.00;;;;5052063;28;20204;-63
2023/04/13 05:51:08;;;;;;;0.90;0.90;;;;;4.90;94925.00;;;;5053447;28;20182;-63
2023/04/13 05:53:35;;;;;;;0.70;0.70;;;;;4.90;94925.00;;;;5055814;28;20195;-63
2023/04/13 05:56:05;;;;;;;0.60;0.60;;;;;4.70;94921.00;;;;5056372;28;20196;-63
2023/04/13 05:58:33;;;;;;;0.60;0.60;;;;;5.00;94929.00;;;;5053088;28;20204;-62
2023/04/13 06:01:02;;;;;;;0.80;0.80;;;;;4.90;94924.00;;;;5062468;28;20214;-59
2023/04/13 06:03:30;;;;;;;0.60;0.60;;;;;5.10;94923.00;;;;5065367;28;20203;-59
2023/04/13 06:05:58;;;;;;;0.70;0.70;;;;;5.00;94925.00;;;;5057743;28;20192;-60
2023/04/13 06:08:31;;;;;;;1.30;1.20;;;;;4.80;94927.00;;;;5064299;28;20282;-60
2023/04/13 06:10:58;;;;;;;1.50;1.40;;;;;4.70;94929.00;;;;5065944;28;20677;-60
2023/04/13 06:13:27;;;;;;;0.70;0.70;;;;;4.90;94930.00;;;;5058556;28;20200;-60
2023/04/13 06:15:54;;;;;;;0.60;0.60;;;;;5.00;94931.00;;;;5066976;28;20303;-59
2023/04/13 06:18:22;;;;;;;0.80;0.80;;;;;5.20;94934.00;;;;5054923;28;20200;-62
2023/04/13 06:20:49;;;;;;;0.50;0.50;;;;;5.10;94932.00;;;;5071631;28;20219;-63
2023/04/13 06:23:16;;;;;;;0.90;0.90;;;;;5.30;94945.00;;;;5073559;28;20206;-62
2023/04/13 06:25:44;;;;;;;0.93;0.93;;;;;5.20;94937.00;;;;5073563;28;20263;-62
2023/04/13 06:28:12;;;;;;;0.70;0.70;;;;;5.40;94934.00;;;;5073880;28;20602;-63
2023/04/13 06:30:42;;;;;;;0.83;0.83;;;;;5.50;94945.00;;;;5073505;28;20219;-62
2023/04/13 06:33:10;;;;;;;0.60;0.60;;;;;5.80;94948.00;;;;5073497;28;20278;-62
2023/04/13 06:35:37;;;;;;;0.93;0.93;;;;;5.80;94949.00;;;;5073486;28;20222;-62
2023/04/13 06:38:04;;;;;;;0.60;0.60;;;;;5.80;94948.00;;;;5061152;28;20255;-63
2023/04/13 06:40:33;;;;;;;0.73;0.73;;;;;5.70;94945.00;;;;5068297;28;20318;-62
2023/04/13 06:43:00;;;;;;;1.23;1.00;;;;;5.70;94946.00;;;;5053233;28;20286;-62
2023/04/13 06:45:29;;;;;;;1.17;1.10;;;;;5.80;94945.00;;;;5053323;28;20296;-62
2023/04/13 06:47:59;;;;;;;0.60;0.60;;;;;5.40;94948.00;;;;5053563;28;20939;-62
2023/04/13 06:50:26;;;;;;;0.53;0.53;;;;;5.30;94934.00;;;;5052975;28;20753;-62
2023/04/13 06:52:54;;;;;;;0.60;0.60;;;;;5.50;94926.00;;;;5053183;28;20667;-62
2023/04/13 06:55:21;;;;;;;2.07;0.73;;;;;5.30;94935.00;;;;5070009;28;20228;-62
2023/04/13 06:57:49;;;;;;;0.93;0.93;;;;;5.00;94930.00;;;;5072981;28;20199;-62
2023/04/13 07:00:17;;;;;;;1.03;1.03;;;;;5.10;94931.00;;;;5068417;28;20243;-62
2023/04/13 07:02:44;;;;;;;0.63;0.63;;;;;5.30;94936.00;;;;5050663;28;20205;-62
2023/04/13 07:05:13;;;;;;;0.70;0.70;;;;;5.50;94930.00;;;;5052849;28;20186;-62
2023/04/13 07:07:41;;;;;;;0.77;0.77;;;;;5.30;94933.00;;;;5052867;28;20195;-62
2023/04/13 07:10:09;;;;;;;0.70;0.70;;;;;5.40;94930.00;;;;5052744;28;20703;-62
2023/04/13 07:12:36;;;;;;;0.80;0.80;;;;;5.80;94942.00;;;;5052771;28;20235;-62
2023/04/13 07:15:05;;;;;;;0.93;0.93;;;;;5.50;94945.00;;;;5052484;28;20212;-63
2023/04/13 07:17:32;;;;;;;0.87;0.83;;;;;5.70;94953.00;;;;5051930;28;20740;-62
2023/04/13 07:20:00;;;;;;;0.83;0.83;;;;;5.90;94958.00;;;;5052611;28;20220;-63
2023/04/13 07:22:34;;;;;;;0.97;0.97;;;;;5.80;94966.00;;;;5052541;28;20664;-63
2023/04/13 07:25:02;;;;;;;1.13;1.13;;;;;6.00;94953.00;;;;5052558;28;20640;-63
2023/04/13 07:27:29;;;;;;;0.63;0.63;;;;;6.00;94950.00;;;;5052587;28;20200;-63
2023/04/13 07:29:56;;;;;;;0.70;0.70;;;;;6.00;94940.00;;;;5052580;28;20213;-63
2023/04/13 07:32:26;;;;;;;0.60;0.60;;;;;5.70;94941.00;;;;5057021;28;20199;-63
2023/04/13 07:34:57;;;;;;;0.60;0.60;;;;;5.90;94939.00;;;;5072505;28;20303;-63
2023/04/13 07:37:25;;;;;;;0.60;0.60;;;;;5.90;94937.00;;;;5070938;28;20195;-63
2023/04/13 07:39:53;;;;;;;0.60;0.60;;;;;5.90;94933.00;;;;5072123;28;20219;-63
2023/04/13 07:42:21;;;;;;;0.70;0.70;;;;;5.60;94938.00;;;;5072086;28;20203;-62
2023/04/13 07:44:48;;;;;;;3.00;1.30;;;;;5.70;94936.00;;;;5071981;28;20187;-62
2023/04/13 07:47:15;;;;;;;0.60;0.60;;;;;6.10;94946.00;;;;5071858;28;20202;-61
2023/04/13 07:49:43;;;;;;;0.80;0.80;;;;;5.80;94938.00;;;;5071729;28;20223;-62
2023/04/13 07:52:11;;;;;;;0.50;0.50;;;;;5.70;94945.00;;;;5071902;28;20202;-62
2023/04/13 07:54:38;;;;;;;0.50;0.50;;;;;5.80;94960.00;;;;5072001;28;20223;-62
2023/04/13 07:57:07;;;;;;;0.70;0.70;;;;;5.60;94960.00;;;;5071723;28;20199;-62
2023/04/13 07:59:35;;;;;;;1.10;1.10;;;;;5.50;94939.00;;;;5071583;28;20214;-62
2023/04/13 08:02:03;;;;;;;0.60;0.60;;;;;5.60;94960.00;;;;5071881;28;20235;-63
2023/04/13 08:04:30;;;;;;;0.60;0.60;;;;;5.90;94958.00;;;;5070263;28;20256;-62
2023/04/13 08:07:02;;;;;;;0.50;0.50;;;;;6.00;94959.00;;;;5071159;28;20223;-62
2023/04/13 08:09:35;;;;;;;0.70;0.70;;;;;6.10;94952.00;;;;5070308;28;20219;-63
2023/04/13 08:12:02;;;;;;;0.77;0.77;;;;;6.60;94941.00;;;;5071602;28;20270;-64
2023/04/13 08:14:31;;;;;;;0.67;0.67;;;;;6.60;94954.00;;;;5071295;28;20188;-62
2023/04/13 08:16:59;;;;;;;0.60;0.60;;;;;6.30;94866.00;;;;5071374;28;20286;-63
2023/04/13 08:19:29;;;;;;;0.77;0.77;;;;;6.60;94939.00;;;;5071581;28;20223;-65
2023/04/13 08:21:57;;;;;;;1.00;1.00;;;;;6.70;94946.00;;;;5071512;28;20248;-64
2023/04/13 08:24:25;;;;;;;0.60;0.60;;;;;6.70;94950.00;;;;5071485;28;20199;-63
2023/04/13 08:26:53;;;;;;;0.70;0.70;;;;;7.10;94964.00;;;;5071349;28;20201;-63
2023/04/13 08:29:26;;;;;;;0.50;0.50;;;;;6.90;94962.00;;;;5071115;28;20231;-64
2023/04/13 08:31:56;;;;;;;0.90;0.90;;;;;6.70;94957.00;;;;5071344;28;20718;-63
2023/04/13 08:34:24;;;;;;;0.50;0.50;;;;;6.40;94958.00;;;;5071626;28;20527;-63
2023/04/13 08:36:53;;;;;;;1.07;1.00;;;;;6.50;94962.00;;;;5071287;28;20206;-64
2023/04/13 08:39:21;;;;;;;0.60;0.60;;;;;6.70;94974.00;;;;5071495;28;20559;-62
2023/04/13 08:41:49;;;;;;;0.50;0.50;;;;;6.70;94978.00;;;;5071225;28;20218;-62
2023/04/13 08:44:17;;;;;;;0.70;0.70;;;;;6.60;94976.00;;;;5071221;28;20287;-62
2023/04/13 08:46:46;;;;;;;0.73;0.73;;;;;6.80;94974.00;;;;5071133;28;20191;-62
2023/04/13 08:49:15;;;;;;;0.53;0.53;;;;;7.00;94980.00;;;;5046272;28;20235;-61
2023/04/13 08:51:44;;;;;;;0.60;0.60;;;;;7.20;94974.00;;;;5051718;28;20523;-62
2023/04/13 08:54:14;;;;;;;0.50;0.50;;;;;7.50;94959.00;;;;5051392;28;20560;-62
2023/04/13 08:56:45;;;;;;;1.10;1.10;;;;;7.60;94950.00;;;;5046767;28;20687;-62
2023/04/13 08:59:14;;;;;;;1.37;1.00;;;;;7.30;94966.00;;;;5050564;28;20750;-62
2023/04/13 09:01:43;;;;;;;0.60;0.60;;;;;7.00;94957.00;;;;5051806;28;20231;-62
2023/04/13 09:04:12;;;;;;;0.50;0.50;;;;;7.90;94970.00;;;;5071058;28;20293;-62
2023/04/13 09:06:42;;;;;;;7.10;0.80;;;;;7.40;94964.00;;;;5071052;28;20192;-61
2023/04/13 09:09:13;;;;;;;0.73;0.73;;;;;7.70;94969.00;;;;5070893;28;20353;-63
2023/04/13 09:11:41;;;;;;;0.67;0.67;;;;;7.20;94989.00;;;;5069725;28;20282;-62
2023/04/13 09:14:09;;;;;;;0.70;0.70;;;;;7.40;94956.00;;;;5063701;28;20195;-62
2023/04/13 09:16:40;;;;;;;0.57;0.57;;;;;7.70;94966.00;;;;5050958;28;20241;-63
2023/04/13 09:19:09;;;;;;;0.70;0.70;;;;;7.10;94972.00;;;;5049537;28;20227;-64
2023/04/13 09:21:38;;;;;;;0.73;0.73;;;;;7.10;94979.00;;;;5050981;28;20255;-62
2023/04/13 09:24:09;;;;;;;0.63;0.63;;;;;7.30;94964.00;;;;5051000;28;20265;-62
2023/04/13 09:26:41;;;;;;;5.90;1.37;;;;;7.00;94971.00;;;;5051743;28;20196;-64
2023/04/13 09:29:12;;;;;;;8.00;1.00;;;;;6.80;94978.00;;;;5054608;28;20215;-62
2023/04/13 09:31:40;;;;;;;0.80;0.80;;;;;7.00;94979.00;;;;5055065;28;20249;-63
2023/04/13 09:34:08;;;;;;;0.70;0.70;;;;;7.00;94980.00;;;;5055083;28;20234;-61
2023/04/13 09:36:36;;;;;;;0.50;0.50;;;;;7.20;94978.00;;;;5069216;28;20220;-62
2023/04/13 09:39:05;;;;;;;0.60;0.60;;;;;7.10;94985.00;;;;5058433;28;20597;-62
2023/04/13 09:41:34;;;;;;;0.50;0.50;;;;;7.40;94987.00;;;;5074499;28;20194;-62
2023/04/13 09:44:14;;;;;;;0.90;0.90;;;;;7.10;94979.00;;;;5074479;28;20285;-62
2023/04/13 09:46:42;;;;;;;1.10;1.10;;;;;7.20;94973.00;;;;5073225;28;20199;-62
2023/04/13 09:49:10;;;;;;;1.00;1.00;;;;;7.00;94976.00;;;;5073103;28;20605;-62
2023/04/13 09:51:38;;;;;;;0.50;0.50;;;;;7.30;94972.00;;;;5071622;28;20264;-61
2023/04/13 09:54:07;;;;;;;0.80;0.80;;;;;7.40;94978.00;;;;5054250;28;20199;-62
2023/04/13 09:56:46;;;;;;;0.70;0.70;;;;;7.70;94981.00;;;;5054116;28;20295;-61
2023/04/13 09:59:14;;;;;;;0.93;0.93;;;;;7.60;94938.00;;;;5049701;28;20287;-61
2023/04/13 10:01:42;;;;;;;0.60;0.60;;;;;8.00;94977.00;;;;5054296;28;20203;-62
2023/04/13 10:04:10;;;;;;;0.70;0.70;;;;;7.90;94981.00;;;;5054045;28;20196;-62
2023/04/13 10:06:42;;;;;;;0.90;0.90;;;;;7.80;94968.00;;;;5054082;28;20215;-61
2023/04/13 10:09:11;;;;;;;0.90;0.90;;;;;7.70;94966.00;;;;5053779;28;20222;-61
2023/04/13 10:11:44;;;;;;;1.20;1.20;;;;;7.90;94974.00;;;;5052625;28;20196;-62
2023/04/13 10:14:15;;;;;;;0.60;0.60;;;;;7.60;94973.00;;;;5052763;28;20654;-64
2023/04/13 10:17:07;;;;;;;0.57;0.57;;;;;8.00;94959.00;;;;5056776;28;20224;-62
2023/04/13 10:19:39;;;;;;;0.70;0.70;;;;;7.80;94973.00;;;;5073831;28;20219;-62
2023/04/13 10:22:07;;;;;;;4.00;1.07;;;;;7.80;94966.00;;;;5070425;28;20194;-63
2023/04/13 10:24:37;;;;;;;0.67;0.67;;;;;7.90;94960.00;;;;5073964;28;20204;-62
2023/04/13 10:27:13;;;;;;;1.00;1.00;;;;;7.80;94974.00;;;;5073191;28;20195;-62
2023/04/13 10:29:40;;;;;;;1.53;1.43;;;;;7.70;94960.00;;;;5073528;28;20245;-61
2023/04/13 10:32:08;;;;;;;0.87;0.87;;;;;7.80;94957.00;;;;5073804;28;20294;-62
2023/04/13 10:34:37;;;;;;;0.50;0.50;;;;;7.60;94975.00;;;;5073810;28;20221;-61
2023/04/13 10:37:05;;;;;;;0.97;0.97;;;;;7.40;94958.00;;;;5069977;28;20262;-62
2023/04/13 10:39:34;;;;;;;1.50;1.40;;;;;7.40;94956.00;;;;5053419;28;20216;-60
2023/04/13 10:42:05;;;;;;;0.60;0.60;;;;;8.10;94960.00;;;;5072347;28;20513;-61
2023/04/13 10:44:45;;;;;;;1.43;1.33;;;;;8.20;94960.00;;;;5073454;28;20192;-60
2023/04/13 10:47:13;;;;;;;0.50;0.50;;;;;8.40;94960.00;;;;5059795;28;20197;-62
2023/04/13 10:49:41;;;;;;;0.70;0.70;;;;;8.00;94957.00;;;;5053189;28;20246;-62
2023/04/13 10:52:10;;;;;;;1.03;1.03;;;;;8.10;94966.00;;;;5053215;28;20204;-62
2023/04/13 10:54:39;;;;;;;0.60;0.60;;;;;8.00;94967.00;;;;5069785;28;20203;-60
2023/04/13 10:57:09;;;;;;;0.60;0.60;;;;;8.10;94969.00;;;;5072992;28;20731;-63
2023/04/13 10:59:39;;;;;;;0.50;0.50;;;;;7.90;94972.00;;;;5065936;28;20223;-63
2023/04/13 11:02:09;;;;;;;0.67;0.67;;;;;8.00;94966.00;;;;5073000;28;20596;-63
2023/04/13 11:04:39;;;;;;;0.63;0.63;;;;;8.00;94967.00;;;;5072186;28;20207;-63
2023/04/13 11:07:07;;;;;;;0.50;0.50;;;;;7.90;94977.00;;;;5072776;28;20685;-64
2023/04/13 11:09:35;;;;;;;0.60;0.60;;;;;8.00;94969.00;;;;5072700;28;20254;-62
2023/04/13 11:12:02;;;;;;;2.43;1.10;;;;;8.50;94968.00;;;;5059874;28;20211;-62
2023/04/13 11:14:31;;;;;;;2.83;1.00;;;;;8.90;94960.00;;;;5052310;28;20203;-63
2023/04/13 11:16:58;;;;;;;0.60;0.60;;;;;9.00;94975.00;;;;5052565;28;20223;-64
2023/04/13 11:19:26;;;;;;;0.60;0.60;;;;;9.10;94972.00;;;;5051314;28;20289;-63
2023/04/13 11:21:58;;;;;;;0.70;0.70;;;;;8.60;94961.00;;;;5051342;28;20217;-63
2023/04/13 11:24:32;;;;;;;0.60;0.60;;;;;8.60;94958.00;;;;5051305;28;20270;-64
2023/04/13 11:27:00;;;;;;;0.60;0.60;;;;;8.80;94974.00;;;;5052925;28;20195;-63
2023/04/13 11:29:28;;;;;;;0.70;0.70;;;;;8.90;94969.00;;;;5052529;28;20219;-63
2023/04/13 11:31:57;;;;;;;0.60;0.60;;;;;8.90;94950.00;;;;5052645;28;20208;-63
2023/04/13 11:34:27;;;;;;;0.77;0.77;;;;;9.30;94945.00;;;;5047989;28;20199;-63
2023/04/13 11:37:04;;;;;;;0.60;0.60;;;;;9.90;94955.00;;;;5057980;28;20207;-63
2023/04/13 11:39:35;;;;;;;0.50;0.50;;;;;10.00;94953.00;;;;5072254;28;20219;-61
2023/04/13 11:42:06;;;;;;;0.50;0.50;;;;;10.10;94947.00;;;;5072237;28;20257;-63
2023/04/13 11:44:35;;;;;;;0.60;0.60;;;;;9.50;94956.00;;;;5054264;28;20241;-62
2023/04/13 11:47:05;;;;;;;0.70;0.70;;;;;8.90;94951.00;;;;5068846;28;20203;-62
2023/04/13 11:49:33;;;;;;;0.70;0.70;;;;;9.50;94934.00;;;;5067965;28;20224;-62
2023/04/13 11:52:02;;;;;;;0.50;0.50;;;;;10.40;94942.00;;;;5052091;28;20200;-62
2023/04/13 11:54:30;;;;;;;0.60;0.60;;;;;9.90;94936.00;;;;5051868;28;20562;-63
2023/04/13 11:56:57;;;;;;;0.50;0.50;;;;;10.60;94911.00;;;;5071193;28;20569;-62
2023/04/13 11:59:25;;;;;;;0.47;0.47;;;;;10.90;94914.00;;;;5064060;28;20223;-62
2023/04/13 12:01:53;;;;;;;0.70;0.70;;;;;11.30;94918.00;;;;5071707;28;20198;-62
2023/04/13 12:04:22;;;;;;;0.50;0.50;;;;;11.00;94935.00;;;;5071693;28;20574;-63
2023/04/13 12:06:49;;;;;;;0.50;0.50;;;;;10.70;94914.00;;;;5057160;28;20271;-62
2023/04/13 12:09:18;;;;;;;0.70;0.70;;;;;10.40;94932.00;;;;5051541;28;20300;-65
2023/04/13 12:11:46;;;;;;;0.50;0.50;;;;;9.90;94897.00;;;;5051638;28;20204;-62
2023/04/13 12:14:22;;;;;;;0.50;0.50;;;;;9.50;94901.00;;;;5051844;28;20254;-65
2023/04/13 12:16:50;;;;;;;0.50;0.50;;;;;10.10;94921.00;;;;5051798;28;20265;-63
2023/04/13 12:19:23;;;;;;;0.50;0.50;;;;;10.60;94921.00;;;;5057281;28;20226;-63
2023/04/13 12:21:51;;;;;;;0.50;0.50;;;;;10.80;94902.00;;;;5071561;28;20256;-62
2023/04/13 12:24:18;;;;;;;0.70;0.70;;;;;11.30;94915.00;;;;5071421;28;20210;-62
2023/04/13 12:26:46;;;;;;;0.70;0.70;;;;;10.60;94919.00;;;;5071440;28;20192;-62
2023/04/13 12:29:13;;;;;;;0.80;0.80;;;;;10.50;94969.00;;;;5071330;28;20273;-63
2023/04/13 12:31:43;;;;;;;0.60;0.60;;;;;9.30;94949.00;;;;5071342;28;20230;-62
2023/04/13 12:34:10;;;;;;;0.53;0.53;;;;;9.80;94953.00;;;;5071303;28;20199;-63